South Labrador Coast: Past 24 Hour Conditions

 

Blanc-Sablon Airport

10:00 PM AST 20 November 2014
This table is a summary of hourly weather conditions for the past 24 hours.
Date / Time
(AST)
Wind(knots) Conditions Visibility(km) Pressure(kPa) Air tempC) Relative humidity(%) Dew pointC) Wind Chill
20 November 2014
22:00 NE 4 Light Snow 24 101.1 -5 65 -10 -8
21:00 NNW 5 Mostly Cloudy 24 101.1 -4 61 -11 -8
20:00 WNW 8 Partly Cloudy 24 101.2 -4 59 -10 -9
19:00 W 11 gust 21 Mainly Clear 24 101.2 -3 56 -10 -9
18:00 W 15 gust 27 Mainly Clear 24 101.2 -3 54 -11 -10
17:00 W 20 gust 28 Clear 24 101.1 -3 56 -10 -11
16:00 WSW 21 gust 33 Mainly Clear 24 101.1 -3 58 -10 -11
15:00 WSW 22 gust 28 Partly Cloudy 24 101.0 -2 60 -9 -11
14:00 WSW 22 gust 30 Sunny 24 100.9 -3 57 -10 -11
13:00 WSW 20 gust 26 Sunny 24 100.9 -3 58 -10 -11
12:00 W 20 Sunny 24 100.9 -4 59 -10 -12
11:00 W 24 gust 30 Sunny 24 100.9 -4 57 -11 -14
10:00 W 19 gust 28 Sunny 24 101.0 -5 59 -12 -13
9:00 W 21 gust 29 Sunny 24 100.9 -5 61 -11 -14
8:00 W 23 gust 28 Sunny 24 100.9 -5 60 -12 -15
7:00 W 24 gust 33 Clear 24 100.8 -5 61 -12 -15
6:00 W 21 gust 34 Mainly Clear 24 100.6 -5 63 -11 -14
5:00 W 23 gust 35 Partly Cloudy 24 100.5 -5 61 -12 -15
4:00 W 26 gust 37 Mainly Clear 24 100.4 -5 60 -11 -15
3:00 W 21 gust 32 Mainly Clear 24 100.3 -5 59 -12 -14
2:00 W 25 gust 35 Partly Cloudy 24 100.1 -5 57 -12 -15
1:00 W 24 gust 32 Mainly Clear 24 100.0 -5 60 -11 -14
0:00 W 24 gust 36 Mainly Clear 24 99.8 -4 60 -11 -14
19 November 2014
23:00 W 28 gust 36 Mainly Clear 24 99.7 -4 58 -11 -14
22:00 W 28 gust 40 Partly Cloudy 24 99.5 -4 58 -11 -14
 
Map of Atlantic - Newfoundland marine weather areas Southwestern Grand Banks - 44138 Banquereau - 44139 Tail of the Bank - 44140 Nickerson Bank - 44251 Northeast Burgeo Bank - 44255 Blanc-Sablon Airport Cap Whittle Chevery Natashquan Airport Heath Point Miscou Island Grand Étang Ingonish Beach North Mountain St.Paul Island J.A. Douglas McCurdy Sydney Airport Charlottetown Airport East Point North Cape Argentia Bonavista Burgeo Cape Race Corner Brook Daniel's Harbour Englee Ferolle Point La Scie Port aux Basques Rocky Harbour Sagona Island St. Anthony Airport St. John's Int'l Airport St. Lawrence Stephenville Airport Twillingate Winterland Wreckhouse Cartwright Airport Mary's Harbour Grates Cove Pool's Island Marticot Island Long Pond Îles de la Madeleine Airport
Legend: buoyBuoy land stationLand Station